sensor_id;sensor_type;location;lat;lon;timestamp;temperature;humidity
21271;DHT22;10795;50.796;3.860;2023-06-14T04:05:40;18.40;99.90
21271;DHT22;10795;50.796;3.860;2023-06-14T06:11:24;24.40;99.90
21271;DHT22;10795;50.796;3.860;2023-06-14T06:14:15;24.50;99.90
21271;DHT22;10795;50.796;3.860;2023-06-14T06:17:28;24.50;99.90
21271;DHT22;10795;50.796;3.860;2023-06-14T06:20:17;24.80;99.90
21271;DHT22;10795;50.796;3.860;2023-06-14T06:23:17;24.70;99.90
21271;DHT22;10795;50.796;3.860;2023-06-14T06:26:08;24.90;99.90
21271;DHT22;10795;50.796;3.860;2023-06-14T06:28:55;24.90;99.90
21271;DHT22;10795;50.796;3.860;2023-06-14T06:31:33;25.30;99.90
21271;DHT22;10795;50.796;3.860;2023-06-14T06:34:08;25.80;99.90
21271;DHT22;10795;50.796;3.860;2023-06-14T06:36:34;26.00;99.90
21271;DHT22;10795;50.796;3.860;2023-06-14T06:39:03;26.30;99.90
21271;DHT22;10795;50.796;3.860;2023-06-14T06:41:38;26.20;99.90
21271;DHT22;10795;50.796;3.860;2023-06-14T06:44:06;26.40;99.90
21271;DHT22;10795;50.796;3.860;2023-06-14T06:46:38;26.80;99.90
21271;DHT22;10795;50.796;3.860;2023-06-14T06:49:09;26.90;99.90
21271;DHT22;10795;50.796;3.860;2023-06-14T06:52:05;26.80;99.90
21271;DHT22;10795;50.796;3.860;2023-06-14T06:54:34;27.20;99.90
21271;DHT22;10795;50.796;3.860;2023-06-14T06:57:00;27.40;99.90
21271;DHT22;10795;50.796;3.860;2023-06-14T06:59:32;27.70;99.90
21271;DHT22;10795;50.796;3.860;2023-06-14T07:02:10;27.60;99.90
21271;DHT22;10795;50.796;3.860;2023-06-14T07:04:36;27.90;99.90
21271;DHT22;10795;50.796;3.860;2023-06-14T07:07:05;28.10;99.90
21271;DHT22;10795;50.796;3.860;2023-06-14T07:09:49;28.20;99.90
21271;DHT22;10795;50.796;3.860;2023-06-14T07:12:15;28.60;99.90
21271;DHT22;10795;50.796;3.860;2023-06-14T07:14:50;28.80;99.90
21271;DHT22;10795;50.796;3.860;2023-06-14T07:17:29;29.20;99.90
21271;DHT22;10795;50.796;3.860;2023-06-14T07:20:07;28.80;99.90
21271;DHT22;10795;50.796;3.860;2023-06-14T07:22:43;29.40;99.90
21271;DHT22;10795;50.796;3.860;2023-06-14T07:25:12;29.00;99.90
21271;DHT22;10795;50.796;3.860;2023-06-14T07:27:44;28.80;99.90
21271;DHT22;10795;50.796;3.860;2023-06-14T07:30:24;28.70;99.90
21271;DHT22;10795;50.796;3.860;2023-06-14T07:33:12;28.90;99.90
21271;DHT22;10795;50.796;3.860;2023-06-14T07:35:45;28.80;99.90
21271;DHT22;10795;50.796;3.860;2023-06-14T07:38:11;29.60;99.90
21271;DHT22;10795;50.796;3.860;2023-06-14T07:40:43;29.70;99.90
21271;DHT22;10795;50.796;3.860;2023-06-14T07:43:15;29.90;99.90
21271;DHT22;10795;50.796;3.860;2023-06-14T07:45:57;30.30;99.90
21271;DHT22;10795;50.796;3.860;2023-06-14T07:48:54;30.60;99.90
21271;DHT22;10795;50.796;3.860;2023-06-14T07:51:35;30.90;99.90
21271;DHT22;10795;50.796;3.860;2023-06-14T07:54:04;31.20;99.90
21271;DHT22;10795;50.796;3.860;2023-06-14T07:57:00;31.40;99.90
21271;DHT22;10795;50.796;3.860;2023-06-14T07:59:51;31.50;99.90
21271;DHT22;10795;50.796;3.860;2023-06-14T08:02:51;31.80;99.90
21271;DHT22;10795;50.796;3.860;2023-06-14T08:05:56;32.00;99.60
21271;DHT22;10795;50.796;3.860;2023-06-14T08:08:53;32.00;99.90
21271;DHT22;10795;50.796;3.860;2023-06-14T08:11:21;32.00;98.60
21271;DHT22;10795;50.796;3.860;2023-06-14T08:14:19;32.30;99.90
21271;DHT22;10795;50.796;3.860;2023-06-14T08:17:07;32.90;99.90
21271;DHT22;10795;50.796;3.860;2023-06-14T08:20:02;33.20;99.90
21271;DHT22;10795;50.796;3.860;2023-06-14T08:23:06;33.10;99.90
21271;DHT22;10795;50.796;3.860;2023-06-14T08:25:56;32.90;98.80
21271;DHT22;10795;50.796;3.860;2023-06-14T08:28:56;33.20;99.90
21271;DHT22;10795;50.796;3.860;2023-06-14T08:31:24;33.60;95.30
21271;DHT22;10795;50.796;3.860;2023-06-14T08:33:53;32.80;97.70
21271;DHT22;10795;50.796;3.860;2023-06-14T08:36:28;32.50;97.20
21271;DHT22;10795;50.796;3.860;2023-06-14T08:38:54;33.50;97.60
21271;DHT22;10795;50.796;3.860;2023-06-14T08:41:24;33.80;95.30
21271;DHT22;10795;50.796;3.860;2023-06-14T08:43:52;33.60;94.80
21271;DHT22;10795;50.796;3.860;2023-06-14T08:46:33;33.10;99.50
21271;DHT22;10795;50.796;3.860;2023-06-14T08:49:01;34.30;97.80
21271;DHT22;10795;50.796;3.860;2023-06-14T08:51:31;34.50;95.60
21271;DHT22;10795;50.796;3.860;2023-06-14T08:54:10;34.30;98.00
21271;DHT22;10795;50.796;3.860;2023-06-14T08:56:48;34.10;93.90
21271;DHT22;10795;50.796;3.860;2023-06-14T08:59:20;34.30;93.30
21271;DHT22;10795;50.796;3.860;2023-06-14T09:01:49;33.60;84.90
21271;DHT22;10795;50.796;3.860;2023-06-14T09:04:17;33.70;96.80
21271;DHT22;10795;50.796;3.860;2023-06-14T09:06:46;34.70;95.50
21271;DHT22;10795;50.796;3.860;2023-06-14T09:09:20;34.80;93.20
21271;DHT22;10795;50.796;3.860;2023-06-14T09:12:10;34.70;90.50
21271;DHT22;10795;50.796;3.860;2023-06-14T09:15:06;34.80;94.10
21271;DHT22;10795;50.796;3.860;2023-06-14T09:17:37;35.00;88.60
21271;DHT22;10795;50.796;3.860;2023-06-14T09:20:14;35.60;91.70
21271;DHT22;10795;50.796;3.860;2023-06-14T09:22:47;35.40;91.10
21271;DHT22;10795;50.796;3.860;2023-06-14T09:25:22;35.40;92.60
21271;DHT22;10795;50.796;3.860;2023-06-14T09:27:48;35.80;92.50
21271;DHT22;10795;50.796;3.860;2023-06-14T09:30:20;36.10;90.40
21271;DHT22;10795;50.796;3.860;2023-06-14T09:32:47;36.10;92.40
21271;DHT22;10795;50.796;3.860;2023-06-14T09:35:17;36.40;91.00
21271;DHT22;10795;50.796;3.860;2023-06-14T09:37:44;36.60;88.50
21271;DHT22;10795;50.796;3.860;2023-06-14T09:40:13;36.50;75.20
21271;DHT22;10795;50.796;3.860;2023-06-14T09:42:52;36.00;86.70
21271;DHT22;10795;50.796;3.860;2023-06-14T09:45:25;35.80;70.60
21271;DHT22;10795;50.796;3.860;2023-06-14T09:48:00;35.70;82.20
21271;DHT22;10795;50.796;3.860;2023-06-14T09:50:26;36.00;78.50
21271;DHT22;10795;50.796;3.860;2023-06-14T09:52:52;36.40;77.50
21271;DHT22;10795;50.796;3.860;2023-06-14T09:55:37;36.40;78.50
21271;DHT22;10795;50.796;3.860;2023-06-14T09:58:09;35.70;79.90
21271;DHT22;10795;50.796;3.860;2023-06-14T10:00:41;36.40;78.30
21271;DHT22;10795;50.796;3.860;2023-06-14T10:03:14;36.10;76.50
21271;DHT22;10795;50.796;3.860;2023-06-14T10:05:47;36.40;77.40
21271;DHT22;10795;50.796;3.860;2023-06-14T10:08:19;36.50;65.60
21271;DHT22;10795;50.796;3.860;2023-06-14T10:10:48;36.70;77.60
21271;DHT22;10795;50.796;3.860;2023-06-14T10:13:14;36.90;73.90
21271;DHT22;10795;50.796;3.860;2023-06-14T10:18:23;36.70;70.60
21271;DHT22;10795;50.796;3.860;2023-06-14T10:21:13;36.60;70.50
21271;DHT22;10795;50.796;3.860;2023-06-14T10:23:47;36.30;71.80
21271;DHT22;10795;50.796;3.860;2023-06-14T10:26:19;36.00;67.90
21271;DHT22;10795;50.796;3.860;2023-06-14T10:29:09;35.80;70.60
21271;DHT22;10795;50.796;3.860;2023-06-14T10:31:48;36.00;69.10
21271;DHT22;10795;50.796;3.860;2023-06-14T10:34:24;36.30;65.80
21271;DHT22;10795;50.796;3.860;2023-06-14T10:37:13;36.10;69.60
21271;DHT22;10795;50.796;3.860;2023-06-14T10:39:44;36.00;69.50
21271;DHT22;10795;50.796;3.860;2023-06-14T10:42:14;36.00;65.80
21271;DHT22;10795;50.796;3.860;2023-06-14T10:44:43;36.50;70.40
21271;DHT22;10795;50.796;3.860;2023-06-14T10:47:11;35.70;69.40
21271;DHT22;10795;50.796;3.860;2023-06-14T10:49:49;36.30;67.80
21271;DHT22;10795;50.796;3.860;2023-06-14T10:52:22;36.50;71.50
21271;DHT22;10795;50.796;3.860;2023-06-14T10:55:10;36.30;70.50
21271;DHT22;10795;50.796;3.860;2023-06-14T10:57:48;36.20;65.30
21271;DHT22;10795;50.796;3.860;2023-06-14T11:00:28;36.10;65.70
21271;DHT22;10795;50.796;3.860;2023-06-14T11:05:53;36.40;69.20
21271;DHT22;10795;50.796;3.860;2023-06-14T11:11:09;36.30;65.20
21271;DHT22;10795;50.796;3.860;2023-06-14T11:13:45;36.30;61.20
21271;DHT22;10795;50.796;3.860;2023-06-14T11:16:16;36.00;64.70
21271;DHT22;10795;50.796;3.860;2023-06-14T11:18:45;36.10;64.30
21271;DHT22;10795;50.796;3.860;2023-06-14T11:21:15;35.60;66.00
21271;DHT22;10795;50.796;3.860;2023-06-14T11:23:41;36.10;67.20
21271;DHT22;10795;50.796;3.860;2023-06-14T11:26:06;36.10;67.20
21271;DHT22;10795;50.796;3.860;2023-06-14T11:28:39;35.70;68.50
21271;DHT22;10795;50.796;3.860;2023-06-14T11:31:06;36.10;68.80
21271;DHT22;10795;50.796;3.860;2023-06-14T11:33:32;36.30;67.30
21271;DHT22;10795;50.796;3.860;2023-06-14T11:36:01;36.00;64.00
21271;DHT22;10795;50.796;3.860;2023-06-14T11:38:27;36.00;63.90
21271;DHT22;10795;50.796;3.860;2023-06-14T11:40:59;36.40;66.30
21271;DHT22;10795;50.796;3.860;2023-06-14T11:43:27;36.30;61.40
21271;DHT22;10795;50.796;3.860;2023-06-14T11:45:57;36.10;66.90
21271;DHT22;10795;50.796;3.860;2023-06-14T11:48:38;35.50;65.80
21271;DHT22;10795;50.796;3.860;2023-06-14T11:51:04;35.70;62.80
21271;DHT22;10795;50.796;3.860;2023-06-14T11:53:33;35.40;63.50
21271;DHT22;10795;50.796;3.860;2023-06-14T11:55:59;35.60;61.70
21271;DHT22;10795;50.796;3.860;2023-06-14T11:58:26;35.30;64.30
21271;DHT22;10795;50.796;3.860;2023-06-14T12:00:58;35.10;63.70
21271;DHT22;10795;50.796;3.860;2023-06-14T12:03:25;35.80;65.30
21271;DHT22;10795;50.796;3.860;2023-06-14T12:06:08;35.90;62.30
21271;DHT22;10795;50.796;3.860;2023-06-14T12:08:40;36.00;59.30
21271;DHT22;10795;50.796;3.860;2023-06-14T12:11:12;35.90;64.20
21271;DHT22;10795;50.796;3.860;2023-06-14T12:13:45;36.00;59.40
21271;DHT22;10795;50.796;3.860;2023-06-14T12:16:11;35.40;58.70
21271;DHT22;10795;50.796;3.860;2023-06-14T12:18:40;35.60;65.10
21271;DHT22;10795;50.796;3.860;2023-06-14T12:21:16;35.80;57.10
21271;DHT22;10795;50.796;3.860;2023-06-14T12:23:46;35.50;59.60
21271;DHT22;10795;50.796;3.860;2023-06-14T12:26:16;35.30;61.00
21271;DHT22;10795;50.796;3.860;2023-06-14T12:28:46;35.40;59.10
21271;DHT22;10795;50.796;3.860;2023-06-14T12:31:14;35.40;59.90
21271;DHT22;10795;50.796;3.860;2023-06-14T12:33:42;35.50;58.10
21271;DHT22;10795;50.796;3.860;2023-06-14T12:36:19;35.40;59.50
21271;DHT22;10795;50.796;3.860;2023-06-14T12:38:48;35.40;59.60
21271;DHT22;10795;50.796;3.860;2023-06-14T12:41:28;35.40;58.70
21271;DHT22;10795;50.796;3.860;2023-06-14T12:43:58;35.80;60.60
21271;DHT22;10795;50.796;3.860;2023-06-14T12:46:28;35.30;60.00
21271;DHT22;10795;50.796;3.860;2023-06-14T12:49:03;34.80;61.40
21271;DHT22;10795;50.796;3.860;2023-06-14T12:51:36;35.30;61.60
21271;DHT22;10795;50.796;3.860;2023-06-14T12:54:14;35.30;61.40
21271;DHT22;10795;50.796;3.860;2023-06-14T12:56:50;35.00;59.70
21271;DHT22;10795;50.796;3.860;2023-06-14T12:59:31;35.40;62.40
21271;DHT22;10795;50.796;3.860;2023-06-14T13:02:16;35.10;60.50
21271;DHT22;10795;50.796;3.860;2023-06-14T13:04:52;34.80;63.60
21271;DHT22;10795;50.796;3.860;2023-06-14T13:07:18;35.00;60.80
21271;DHT22;10795;50.796;3.860;2023-06-14T13:09:46;35.00;60.30
21271;DHT22;10795;50.796;3.860;2023-06-14T13:12:12;34.40;60.30
21271;DHT22;10795;50.796;3.860;2023-06-14T13:14:39;34.40;61.10
21271;DHT22;10795;50.796;3.860;2023-06-14T13:17:08;34.70;59.50
21271;DHT22;10795;50.796;3.860;2023-06-14T13:19:37;34.70;59.70
21271;DHT22;10795;50.796;3.860;2023-06-14T13:22:08;34.60;58.60
21271;DHT22;10795;50.796;3.860;2023-06-14T13:24:34;34.50;59.10
21271;DHT22;10795;50.796;3.860;2023-06-14T13:27:02;34.70;59.50
21271;DHT22;10795;50.796;3.860;2023-06-14T13:29:30;34.60;57.90
21271;DHT22;10795;50.796;3.860;2023-06-14T13:31:59;34.40;58.70
21271;DHT22;10795;50.796;3.860;2023-06-14T13:34:32;33.70;57.60
21271;DHT22;10795;50.796;3.860;2023-06-14T13:36:58;34.20;61.20
21271;DHT22;10795;50.796;3.860;2023-06-14T13:39:37;34.40;59.00
21271;DHT22;10795;50.796;3.860;2023-06-14T13:42:04;34.30;59.70
21271;DHT22;10795;50.796;3.860;2023-06-14T13:44:38;34.30;59.40
21271;DHT22;10795;50.796;3.860;2023-06-14T13:47:04;33.80;60.80
21271;DHT22;10795;50.796;3.860;2023-06-14T13:49:30;34.00;64.50
21271;DHT22;10795;50.796;3.860;2023-06-14T13:51:56;34.00;59.60
21271;DHT22;10795;50.796;3.860;2023-06-14T13:54:23;33.40;60.60
21271;DHT22;10795;50.796;3.860;2023-06-14T13:56:49;33.50;60.40
21271;DHT22;10795;50.796;3.860;2023-06-14T13:59:24;33.70;59.00
21271;DHT22;10795;50.796;3.860;2023-06-14T14:01:50;33.70;59.90
21271;DHT22;10795;50.796;3.860;2023-06-14T14:04:16;33.10;62.10
21271;DHT22;10795;50.796;3.860;2023-06-14T14:06:42;33.30;58.20
21271;DHT22;10795;50.796;3.860;2023-06-14T14:09:08;33.10;57.30
21271;DHT22;10795;50.796;3.860;2023-06-14T14:11:34;33.00;59.30
21271;DHT22;10795;50.796;3.860;2023-06-14T14:14:00;33.30;61.60
21271;DHT22;10795;50.796;3.860;2023-06-14T14:16:30;33.30;62.00
21271;DHT22;10795;50.796;3.860;2023-06-14T14:18:58;32.80;58.90
21271;DHT22;10795;50.796;3.860;2023-06-14T14:21:25;32.70;58.90
21271;DHT22;10795;50.796;3.860;2023-06-14T14:23:51;32.60;58.70
21271;DHT22;10795;50.796;3.860;2023-06-14T14:26:17;32.60;58.90
21271;DHT22;10795;50.796;3.860;2023-06-14T14:28:43;32.70;59.10
21271;DHT22;10795;50.796;3.860;2023-06-14T14:31:12;32.70;59.40
21271;DHT22;10795;50.796;3.860;2023-06-14T14:33:40;32.40;59.10
21271;DHT22;10795;50.796;3.860;2023-06-14T14:36:06;32.00;61.30
21271;DHT22;10795;50.796;3.860;2023-06-14T14:38:33;32.00;60.90
21271;DHT22;10795;50.796;3.860;2023-06-14T14:40:59;32.10;62.40
21271;DHT22;10795;50.796;3.860;2023-06-14T14:43:25;32.10;60.70
21271;DHT22;10795;50.796;3.860;2023-06-14T14:45:54;31.90;61.40
21271;DHT22;10795;50.796;3.860;2023-06-14T14:48:20;32.00;60.80
21271;DHT22;10795;50.796;3.860;2023-06-14T14:50:46;31.80;59.70
21271;DHT22;10795;50.796;3.860;2023-06-14T14:53:13;31.40;61.70
21271;DHT22;10795;50.796;3.860;2023-06-14T14:55:38;31.50;62.10
21271;DHT22;10795;50.796;3.860;2023-06-14T14:58:06;31.40;60.90
21271;DHT22;10795;50.796;3.860;2023-06-14T15:00:34;31.20;62.00
21271;DHT22;10795;50.796;3.860;2023-06-14T15:03:00;31.40;63.10
21271;DHT22;10795;50.796;3.860;2023-06-14T15:05:26;31.50;61.30
21271;DHT22;10795;50.796;3.860;2023-06-14T15:07:52;31.40;62.60
21271;DHT22;10795;50.796;3.860;2023-06-14T15:10:18;31.40;61.70
21271;DHT22;10795;50.796;3.860;2023-06-14T15:12:44;31.30;60.20
21271;DHT22;10795;50.796;3.860;2023-06-14T15:15:10;31.10;61.90
21271;DHT22;10795;50.796;3.860;2023-06-14T15:17:36;31.00;61.50
21271;DHT22;10795;50.796;3.860;2023-06-14T15:20:02;30.90;60.80
21271;DHT22;10795;50.796;3.860;2023-06-14T15:22:31;31.00;60.70
21271;DHT22;10795;50.796;3.860;2023-06-14T15:25:01;31.00;59.80
21271;DHT22;10795;50.796;3.860;2023-06-14T15:27:27;31.00;62.70
21271;DHT22;10795;50.796;3.860;2023-06-14T15:29:53;31.00;62.90
21271;DHT22;10795;50.796;3.860;2023-06-14T15:32:19;30.90;62.20
21271;DHT22;10795;50.796;3.860;2023-06-14T15:34:45;30.80;62.30
21271;DHT22;10795;50.796;3.860;2023-06-14T15:37:11;30.90;61.40
21271;DHT22;10795;50.796;3.860;2023-06-14T15:39:37;30.70;63.00
21271;DHT22;10795;50.796;3.860;2023-06-14T15:42:03;30.60;60.80
21271;DHT22;10795;50.796;3.860;2023-06-14T15:44:29;30.60;59.90
21271;DHT22;10795;50.796;3.860;2023-06-14T15:46:55;30.60;59.80
21271;DHT22;10795;50.796;3.860;2023-06-14T15:49:21;30.40;60.80
21271;DHT22;10795;50.796;3.860;2023-06-14T15:51:47;30.50;60.30
21271;DHT22;10795;50.796;3.860;2023-06-14T15:54:15;30.50;61.20
21271;DHT22;10795;50.796;3.860;2023-06-14T15:56:41;30.40;62.10
21271;DHT22;10795;50.796;3.860;2023-06-14T15:59:07;29.90;60.40
21271;DHT22;10795;50.796;3.860;2023-06-14T16:01:33;30.00;61.20
21271;DHT22;10795;50.796;3.860;2023-06-14T16:03:59;30.20;60.20
21271;DHT22;10795;50.796;3.860;2023-06-14T16:06:25;30.10;60.80
21271;DHT22;10795;50.796;3.860;2023-06-14T16:08:50;29.90;61.00
21271;DHT22;10795;50.796;3.860;2023-06-14T16:11:18;29.90;62.00
21271;DHT22;10795;50.796;3.860;2023-06-14T16:13:45;29.90;62.20
21271;DHT22;10795;50.796;3.860;2023-06-14T16:16:11;29.90;60.00
21271;DHT22;10795;50.796;3.860;2023-06-14T16:18:37;29.80;60.40
21271;DHT22;10795;50.796;3.860;2023-06-14T16:21:09;29.80;60.70
21271;DHT22;10795;50.796;3.860;2023-06-14T16:23:36;29.60;60.20
21271;DHT22;10795;50.796;3.860;2023-06-14T16:26:01;29.60;60.00
21271;DHT22;10795;50.796;3.860;2023-06-14T16:28:30;29.60;61.30
21271;DHT22;10795;50.796;3.860;2023-06-14T16:30:56;29.30;61.20
21271;DHT22;10795;50.796;3.860;2023-06-14T16:33:22;29.30;60.50
21271;DHT22;10795;50.796;3.860;2023-06-14T16:35:48;29.40;59.30
21271;DHT22;10795;50.796;3.860;2023-06-14T16:38:14;29.40;60.80
21271;DHT22;10795;50.796;3.860;2023-06-14T16:40:40;29.50;60.50
21271;DHT22;10795;50.796;3.860;2023-06-14T16:43:06;29.30;60.10
21271;DHT22;10795;50.796;3.860;2023-06-14T16:45:35;29.40;60.70
21271;DHT22;10795;50.796;3.860;2023-06-14T16:48:00;29.40;61.10
21271;DHT22;10795;50.796;3.860;2023-06-14T16:50:29;29.10;62.20
21271;DHT22;10795;50.796;3.860;2023-06-14T16:52:58;29.30;61.10
21271;DHT22;10795;50.796;3.860;2023-06-14T16:55:24;29.20;60.50
21271;DHT22;10795;50.796;3.860;2023-06-14T16:57:50;28.90;60.50
21271;DHT22;10795;50.796;3.860;2023-06-14T17:00:17;29.00;61.00
21271;DHT22;10795;50.796;3.860;2023-06-14T17:02:43;28.90;61.60
21271;DHT22;10795;50.796;3.860;2023-06-14T17:05:11;28.90;61.10
21271;DHT22;10795;50.796;3.860;2023-06-14T17:07:38;28.70;60.60
21271;DHT22;10795;50.796;3.860;2023-06-14T17:10:07;28.90;60.90
21271;DHT22;10795;50.796;3.860;2023-06-14T17:12:33;29.00;61.40
21271;DHT22;10795;50.796;3.860;2023-06-14T17:14:58;28.80;60.50
21271;DHT22;10795;50.796;3.860;2023-06-14T17:17:25;28.80;61.30
21271;DHT22;10795;50.796;3.860;2023-06-14T17:19:50;28.80;61.00
21271;DHT22;10795;50.796;3.860;2023-06-14T17:22:18;28.60;61.20
21271;DHT22;10795;50.796;3.860;2023-06-14T17:24:44;28.40;61.70
21271;DHT22;10795;50.796;3.860;2023-06-14T17:27:10;28.20;61.60
21271;DHT22;10795;50.796;3.860;2023-06-14T17:29:36;28.20;62.30
21271;DHT22;10795;50.796;3.860;2023-06-14T17:32:02;28.40;60.90
21271;DHT22;10795;50.796;3.860;2023-06-14T17:34:29;28.50;60.90
21271;DHT22;10795;50.796;3.860;2023-06-14T17:36:55;28.40;60.60
21271;DHT22;10795;50.796;3.860;2023-06-14T17:39:21;28.30;60.70
21271;DHT22;10795;50.796;3.860;2023-06-14T17:41:47;28.30;61.70
21271;DHT22;10795;50.796;3.860;2023-06-14T17:44:16;28.20;61.10
21271;DHT22;10795;50.796;3.860;2023-06-14T17:46:42;28.10;61.40
21271;DHT22;10795;50.796;3.860;2023-06-14T17:49:10;28.30;61.80
21271;DHT22;10795;50.796;3.860;2023-06-14T17:51:42;28.20;61.80
21271;DHT22;10795;50.796;3.860;2023-06-14T17:54:08;28.20;60.80
21271;DHT22;10795;50.796;3.860;2023-06-14T17:56:37;28.20;61.70
21271;DHT22;10795;50.796;3.860;2023-06-14T17:59:08;28.20;62.10
21271;DHT22;10795;50.796;3.860;2023-06-14T18:01:34;28.00;61.70
21271;DHT22;10795;50.796;3.860;2023-06-14T18:04:00;27.90;61.50
21271;DHT22;10795;50.796;3.860;2023-06-14T18:06:28;27.90;62.10
21271;DHT22;10795;50.796;3.860;2023-06-14T18:09:00;27.90;62.20
21271;DHT22;10795;50.796;3.860;2023-06-14T18:11:26;28.00;62.00
21271;DHT22;10795;50.796;3.860;2023-06-14T18:13:59;28.00;62.60
21271;DHT22;10795;50.796;3.860;2023-06-14T18:16:26;28.00;62.20
21271;DHT22;10795;50.796;3.860;2023-06-14T18:18:55;27.80;62.60
21271;DHT22;10795;50.796;3.860;2023-06-14T18:21:21;27.70;62.50
21271;DHT22;10795;50.796;3.860;2023-06-14T18:23:49;27.60;62.00
21271;DHT22;10795;50.796;3.860;2023-06-14T18:26:24;27.50;63.10
21271;DHT22;10795;50.796;3.860;2023-06-14T18:28:57;27.50;63.10
21271;DHT22;10795;50.796;3.860;2023-06-14T18:31:26;27.50;63.50
21271;DHT22;10795;50.796;3.860;2023-06-14T18:33:51;27.60;63.00
21271;DHT22;10795;50.796;3.860;2023-06-14T18:36:17;27.70;62.80
21271;DHT22;10795;50.796;3.860;2023-06-14T18:38:45;27.60;62.80
21271;DHT22;10795;50.796;3.860;2023-06-14T18:41:14;27.20;63.40
21271;DHT22;10795;50.796;3.860;2023-06-14T18:43:45;27.30;63.50
21271;DHT22;10795;50.796;3.860;2023-06-14T18:46:15;27.40;63.50
21271;DHT22;10795;50.796;3.860;2023-06-14T18:48:44;27.30;63.80
21271;DHT22;10795;50.796;3.860;2023-06-14T18:51:16;27.40;63.50
21271;DHT22;10795;50.796;3.860;2023-06-14T18:53:45;27.40;63.40
21271;DHT22;10795;50.796;3.860;2023-06-14T18:56:13;27.30;63.40
21271;DHT22;10795;50.796;3.860;2023-06-14T18:58:43;27.30;63.50
21271;DHT22;10795;50.796;3.860;2023-06-14T19:01:08;27.30;63.90
21271;DHT22;10795;50.796;3.860;2023-06-14T19:03:35;27.30;63.70
21271;DHT22;10795;50.796;3.860;2023-06-14T19:06:03;27.30;63.50
21271;DHT22;10795;50.796;3.860;2023-06-14T19:08:29;27.20;64.00
21271;DHT22;10795;50.796;3.860;2023-06-14T19:10:55;27.10;64.40
21271;DHT22;10795;50.796;3.860;2023-06-14T19:13:21;27.10;64.20
21271;DHT22;10795;50.796;3.860;2023-06-14T19:15:50;27.20;64.10
21271;DHT22;10795;50.796;3.860;2023-06-14T19:18:21;27.20;64.00
21271;DHT22;10795;50.796;3.860;2023-06-14T19:20:51;27.10;64.20
21271;DHT22;10795;50.796;3.860;2023-06-14T19:23:19;27.10;64.20
21271;DHT22;10795;50.796;3.860;2023-06-14T19:25:47;27.20;64.40
21271;DHT22;10795;50.796;3.860;2023-06-14T19:28:13;27.10;64.00
21271;DHT22;10795;50.796;3.860;2023-06-14T19:30:43;27.00;64.50
21271;DHT22;10795;50.796;3.860;2023-06-14T19:33:09;26.90;64.40
21271;DHT22;10795;50.796;3.860;2023-06-14T19:35:37;26.90;64.50
21271;DHT22;10795;50.796;3.860;2023-06-14T19:38:06;26.70;64.80
21271;DHT22;10795;50.796;3.860;2023-06-14T19:40:33;26.70;64.40
21271;DHT22;10795;50.796;3.860;2023-06-14T19:42:58;26.60;64.80
21271;DHT22;10795;50.796;3.860;2023-06-14T19:45:25;26.30;65.80
21271;DHT22;10795;50.796;3.860;2023-06-14T19:47:51;26.20;65.90
21271;DHT22;10795;50.796;3.860;2023-06-14T19:50:17;26.30;65.40
21271;DHT22;10795;50.796;3.860;2023-06-14T19:52:43;26.30;65.40
21271;DHT22;10795;50.796;3.860;2023-06-14T19:55:09;26.40;65.40
21271;DHT22;10795;50.796;3.860;2023-06-14T19:57:35;26.10;66.10
21271;DHT22;10795;50.796;3.860;2023-06-14T20:00:01;26.00;65.20
21271;DHT22;10795;50.796;3.860;2023-06-14T20:02:34;26.00;65.90
21271;DHT22;10795;50.796;3.860;2023-06-14T20:05:00;26.20;65.40
21271;DHT22;10795;50.796;3.860;2023-06-14T20:07:26;26.10;65.40
21271;DHT22;10795;50.796;3.860;2023-06-14T20:09:53;25.90;65.70
21271;DHT22;10795;50.796;3.860;2023-06-14T20:12:21;25.70;66.10
21271;DHT22;10795;50.796;3.860;2023-06-14T20:14:47;25.40;66.90
21271;DHT22;10795;50.796;3.860;2023-06-14T20:17:13;25.20;67.00
21271;DHT22;10795;50.796;3.860;2023-06-14T20:19:39;25.80;65.90
21271;DHT22;10795;50.796;3.860;2023-06-14T20:22:05;25.90;65.40
21271;DHT22;10795;50.796;3.860;2023-06-14T20:24:31;25.20;68.10
21271;DHT22;10795;50.796;3.860;2023-06-14T20:26:57;24.40;70.40
21271;DHT22;10795;50.796;3.860;2023-06-14T20:29:23;24.30;69.80
21271;DHT22;10795;50.796;3.860;2023-06-14T20:31:49;24.20;71.40
21271;DHT22;10795;50.796;3.860;2023-06-14T20:34:15;24.50;70.40
21271;DHT22;10795;50.796;3.860;2023-06-14T20:36:41;24.30;69.80
21271;DHT22;10795;50.796;3.860;2023-06-14T20:39:06;24.00;72.20
21271;DHT22;10795;50.796;3.860;2023-06-14T20:41:33;23.40;74.00
21271;DHT22;10795;50.796;3.860;2023-06-14T20:43:59;23.00;75.60
21271;DHT22;10795;50.796;3.860;2023-06-14T20:46:27;22.80;76.80
21271;DHT22;10795;50.796;3.860;2023-06-14T20:48:54;22.70;77.30
21271;DHT22;10795;50.796;3.860;2023-06-14T20:51:20;22.40;78.50
21271;DHT22;10795;50.796;3.860;2023-06-14T20:53:46;22.50;78.80
21271;DHT22;10795;50.796;3.860;2023-06-14T20:56:12;22.40;79.50
21271;DHT22;10795;50.796;3.860;2023-06-14T20:58:38;23.00;77.40
21271;DHT22;10795;50.796;3.860;2023-06-14T21:01:04;22.80;78.50
21271;DHT22;10795;50.796;3.860;2023-06-14T21:03:30;22.50;80.00
21271;DHT22;10795;50.796;3.860;2023-06-14T21:05:56;22.20;81.10
21271;DHT22;10795;50.796;3.860;2023-06-14T21:08:26;22.10;81.30
21271;DHT22;10795;50.796;3.860;2023-06-14T21:10:54;22.80;78.20
21271;DHT22;10795;50.796;3.860;2023-06-14T21:13:22;23.20;77.60
21271;DHT22;10795;50.796;3.860;2023-06-14T21:15:49;22.60;79.40
21271;DHT22;10795;50.796;3.860;2023-06-14T21:18:15;22.20;80.50
21271;DHT22;10795;50.796;3.860;2023-06-14T21:20:41;22.10;81.20
21271;DHT22;10795;50.796;3.860;2023-06-14T21:23:07;22.20;81.10
21271;DHT22;10795;50.796;3.860;2023-06-14T21:25:34;22.10;81.50
21271;DHT22;10795;50.796;3.860;2023-06-14T21:28:02;22.10;81.50
21271;DHT22;10795;50.796;3.860;2023-06-14T21:30:35;21.80;83.80
21271;DHT22;10795;50.796;3.860;2023-06-14T21:33:02;21.90;83.50
21271;DHT22;10795;50.796;3.860;2023-06-14T21:35:32;22.50;80.50
21271;DHT22;10795;50.796;3.860;2023-06-14T21:37:58;22.70;78.90
21271;DHT22;10795;50.796;3.860;2023-06-14T21:40:27;22.20;82.70
21271;DHT22;10795;50.796;3.860;2023-06-14T21:42:58;21.80;84.80
21271;DHT22;10795;50.796;3.860;2023-06-14T21:45:24;21.70;83.20
21271;DHT22;10795;50.796;3.860;2023-06-14T21:47:53;22.60;79.30
21271;DHT22;10795;50.796;3.860;2023-06-14T21:50:19;23.30;77.30
21271;DHT22;10795;50.796;3.860;2023-06-14T21:52:54;23.60;74.90
21271;DHT22;10795;50.796;3.860;2023-06-14T21:55:25;23.40;78.20
21271;DHT22;10795;50.796;3.860;2023-06-14T22:00:32;22.40;83.40
21271;DHT22;10795;50.796;3.860;2023-06-14T22:06:31;20.70;91.60
21271;DHT22;10795;50.796;3.860;2023-06-14T22:08:59;20.60;92.00
21271;DHT22;10795;50.796;3.860;2023-06-14T22:11:36;20.70;92.40
21271;DHT22;10795;50.796;3.860;2023-06-14T22:14:18;20.80;92.60